createdAt,value
2017-11-12T00:01:14.413Z,6.50
2017-11-12T00:03:41.868Z,5.35
2017-11-12T00:06:09.318Z,6.75
2017-11-12T00:08:36.775Z,6.47
2017-11-12T00:11:04.559Z,5.78
2017-11-12T00:13:31.986Z,8.57
2017-11-12T00:15:59.417Z,13.07
2017-11-12T00:18:27.246Z,7.03
2017-11-12T00:20:54.694Z,7.62
2017-11-12T00:23:22.135Z,4.85
2017-11-12T00:25:49.561Z,6.45
2017-11-12T00:28:16.986Z,5.03
2017-11-12T00:30:44.845Z,7.55
2017-11-12T00:33:12.268Z,5.78
2017-11-12T00:35:39.705Z,7.37
2017-11-12T00:38:07.150Z,6.95
2017-11-12T00:40:34.580Z,9.20
2017-11-12T00:43:02.416Z,8.25
2017-11-12T00:45:29.872Z,9.98
2017-11-12T00:47:57.312Z,7.45
2017-11-12T00:50:24.763Z,8.45
2017-11-12T00:52:52.347Z,14.32
2017-11-12T00:55:19.788Z,8.70
2017-11-12T00:57:47.226Z,8.60
2017-11-12T01:00:14.646Z,9.60
2017-11-12T01:02:42.086Z,7.87
2017-11-12T01:05:09.936Z,6.45
2017-11-12T01:07:37.392Z,9.38
2017-11-12T01:10:04.810Z,7.22
2017-11-12T01:12:32.248Z,11.90
2017-11-12T01:14:59.676Z,9.07
2017-11-12T01:17:27.982Z,5.35
2017-11-12T01:19:55.413Z,6.47
2017-11-12T01:22:22.846Z,8.00
2017-11-12T01:24:50.689Z,5.22
2017-11-12T01:27:18.127Z,7.05
2017-11-12T01:29:45.578Z,5.93
2017-11-12T01:32:13.442Z,8.38
2017-11-12T01:34:40.871Z,6.30
2017-11-12T01:37:08.312Z,5.97
2017-11-12T01:39:35.755Z,5.75
2017-11-12T01:42:03.586Z,6.30
2017-11-12T01:44:31.009Z,4.95
2017-11-12T01:46:59.439Z,11.65
2017-11-12T01:49:27.323Z,6.68
2017-11-12T01:51:55.142Z,6.43
2017-11-12T01:54:22.587Z,12.85
2017-11-12T01:56:50.024Z,5.72
2017-11-12T01:59:17.450Z,7.47
2017-11-12T02:01:44.914Z,7.35
2017-11-12T02:04:12.342Z,9.52
2017-11-12T02:06:40.166Z,5.78
2017-11-12T02:09:07.623Z,7.03
2017-11-12T02:11:35.057Z,6.37
2017-11-12T02:14:02.490Z,10.02
2017-11-12T02:16:30.289Z,4.05
2017-11-12T02:18:57.720Z,5.05
2017-11-12T02:21:25.142Z,5.45
2017-11-12T02:23:53.000Z,8.52
2017-11-12T02:26:20.433Z,4.25
2017-11-12T02:28:47.861Z,4.82
2017-11-12T02:31:15.326Z,11.25
2017-11-12T02:33:42.763Z,5.00
2017-11-12T02:36:10.191Z,8.18
2017-11-12T02:38:38.019Z,7.12
2017-11-12T02:41:05.458Z,8.25
2017-11-12T02:43:33.055Z,6.20
2017-11-12T02:46:00.873Z,8.55
2017-11-12T02:48:28.301Z,10.57
2017-11-12T02:50:55.757Z,6.15
2017-11-12T02:53:23.213Z,9.88
2017-11-12T02:55:50.629Z,5.78
2017-11-12T02:58:18.103Z,6.85
2017-11-12T03:00:45.921Z,8.40
2017-11-12T03:03:13.356Z,7.40
2017-11-12T03:05:40.813Z,6.72
2017-11-12T03:08:08.256Z,10.95
2017-11-12T03:10:35.674Z,4.03
2017-11-12T03:13:03.289Z,6.93
2017-11-12T03:15:30.724Z,7.62
2017-11-12T03:17:58.153Z,11.12
2017-11-12T03:20:26.161Z,7.37
2017-11-12T03:22:53.595Z,8.43
2017-11-12T03:25:21.017Z,11.75
2017-11-12T03:27:48.866Z,6.65
2017-11-12T03:30:16.299Z,9.73
2017-11-12T03:32:43.739Z,6.50
2017-11-12T03:35:11.171Z,10.40
2017-11-12T03:37:38.607Z,12.15
2017-11-12T03:40:06.633Z,8.43
2017-11-12T03:42:34.068Z,15.47
2017-11-12T03:45:01.492Z,10.70
2017-11-12T03:47:29.739Z,8.70
2017-11-12T03:49:57.189Z,10.55
2017-11-12T03:52:24.619Z,9.52
2017-11-12T03:54:52.218Z,8.68
2017-11-12T03:57:20.042Z,8.98
2017-11-12T03:59:47.489Z,9.43
2017-11-12T04:02:15.027Z,9.70
2017-11-12T04:04:42.455Z,18.77
2017-11-12T04:07:10.281Z,9.02
2017-11-12T04:09:37.731Z,8.95
2017-11-12T04:12:05.153Z,10.85
2017-11-12T04:14:32.578Z,11.85
2017-11-12T04:17:00.421Z,8.73
2017-11-12T04:19:27.849Z,30.15
2017-11-12T04:21:55.291Z,9.82
2017-11-12T04:24:22.917Z,9.60
2017-11-12T04:26:50.737Z,8.85
2017-11-12T04:29:18.169Z,10.23
2017-11-12T04:31:45.613Z,12.27
2017-11-12T04:34:13.038Z,8.70
2017-11-12T04:36:40.866Z,7.37
2017-11-12T04:39:08.325Z,10.55
2017-11-12T04:41:35.798Z,10.90
2017-11-12T04:44:03.221Z,7.62
2017-11-12T04:46:30.672Z,7.07
2017-11-12T04:48:58.095Z,7.75
2017-11-12T04:51:25.525Z,15.80
2017-11-12T04:53:52.981Z,10.95
2017-11-12T04:56:20.418Z,9.95
2017-11-12T04:58:47.845Z,9.88
2017-11-12T05:01:15.620Z,10.32
2017-11-12T05:03:43.040Z,9.20
2017-11-12T05:06:10.477Z,8.88
2017-11-12T05:08:38.305Z,7.07
2017-11-12T05:11:05.754Z,10.10
2017-11-12T05:13:33.186Z,7.72
2017-11-12T05:16:00.616Z,11.73
2017-11-12T05:18:28.070Z,7.85
2017-11-12T05:20:55.498Z,11.07
2017-11-12T05:23:22.961Z,9.90
2017-11-12T05:25:51.702Z,12.50
2017-11-12T05:28:19.135Z,10.73
2017-11-12T05:30:46.574Z,8.07
2017-11-12T05:33:14.046Z,12.37
2017-11-12T05:35:41.463Z,9.77
2017-11-12T05:38:08.882Z,8.90
2017-11-12T05:40:36.632Z,8.48
2017-11-12T05:43:04.063Z,10.35
2017-11-12T05:45:31.490Z,17.02
2017-11-12T05:47:59.350Z,7.65
2017-11-12T05:50:26.773Z,11.43
2017-11-12T05:52:54.198Z,6.80
2017-11-12T05:55:21.630Z,14.07
2017-11-12T05:57:49.457Z,12.57
2017-11-12T06:00:16.921Z,12.32
2017-11-12T06:02:44.358Z,10.00
2017-11-12T06:05:11.798Z,9.65
2017-11-12T06:07:39.362Z,10.90
2017-11-12T06:10:09.169Z,9.10
2017-11-12T06:12:36.601Z,8.13
2017-11-12T06:15:04.074Z,10.82
2017-11-12T06:17:31.505Z,8.52
2017-11-12T06:19:58.944Z,9.30
2017-11-12T06:22:26.785Z,14.23
2017-11-12T06:24:54.208Z,8.93
2017-11-12T06:27:21.642Z,13.43
2017-11-12T06:29:49.502Z,8.57
2017-11-12T06:32:16.937Z,14.02
2017-11-12T06:34:44.758Z,12.20
2017-11-12T06:37:12.194Z,12.50
2017-11-12T06:39:39.629Z,12.75
2017-11-12T06:42:07.335Z,11.02
2017-11-12T06:44:34.781Z,15.75
2017-11-12T06:47:02.422Z,10.68
2017-11-12T06:49:29.851Z,10.15
2017-11-12T06:51:57.278Z,16.10
2017-11-12T06:54:25.521Z,13.82
2017-11-12T06:56:52.967Z,8.25
2017-11-12T06:59:20.407Z,13.35
2017-11-12T07:01:47.870Z,10.45
2017-11-12T07:04:15.321Z,9.05
2017-11-12T07:06:42.758Z,9.95
2017-11-12T07:09:10.289Z,8.93
2017-11-12T07:11:38.117Z,10.80
2017-11-12T07:14:05.559Z,13.45
2017-11-12T07:16:33.007Z,11.45
2017-11-12T07:19:00.438Z,10.90
2017-11-12T07:21:27.928Z,19.00
2017-11-12T07:23:55.358Z,11.48
2017-11-12T07:26:22.790Z,11.85
2017-11-12T07:28:50.622Z,9.57
2017-11-12T07:31:18.611Z,10.73
2017-11-12T07:33:46.438Z,10.50
2017-11-12T07:36:13.880Z,10.40
2017-11-12T07:38:41.337Z,14.73
2017-11-12T07:41:08.773Z,14.37
2017-11-12T07:43:36.225Z,12.10
2017-11-12T07:46:03.854Z,13.70
2017-11-12T07:48:31.271Z,13.27
2017-11-12T07:50:58.857Z,10.93
2017-11-12T07:53:26.276Z,12.17
2017-11-12T07:55:53.707Z,10.95
2017-11-12T07:58:21.318Z,11.80
2017-11-12T08:00:48.753Z,11.30
2017-11-12T08:03:16.193Z,11.53
2017-11-12T08:05:43.903Z,10.40
2017-11-12T08:08:11.365Z,13.50
2017-11-12T08:10:39.205Z,18.60
2017-11-12T08:13:06.638Z,9.20
2017-11-12T08:15:34.106Z,10.87
2017-11-12T08:18:01.568Z,11.60
2017-11-12T08:20:29.001Z,10.67
2017-11-12T08:22:56.492Z,12.23
2017-11-12T08:25:24.120Z,13.43
2017-11-12T08:27:51.550Z,11.53
2017-11-12T08:30:18.977Z,10.77
2017-11-12T08:32:46.825Z,11.80
2017-11-12T08:35:14.239Z,7.97
2017-11-12T08:37:41.674Z,13.97
2017-11-12T08:40:09.102Z,25.63
2017-11-12T08:42:36.562Z,9.30
2017-11-12T08:45:03.982Z,7.87
2017-11-12T08:47:31.409Z,10.17
2017-11-12T08:49:58.853Z,11.53
2017-11-12T08:52:26.335Z,15.13
2017-11-12T08:54:53.770Z,9.80
2017-11-12T08:57:21.209Z,11.77
2017-11-12T08:59:48.629Z,13.90
2017-11-12T09:02:16.061Z,9.53
2017-11-12T09:04:43.804Z,12.57
2017-11-12T09:07:11.222Z,7.93
2017-11-12T09:09:39.034Z,10.27
2017-11-12T09:12:06.490Z,13.83
2017-11-12T09:14:33.909Z,15.20
2017-11-12T09:17:02.250Z,12.43
2017-11-12T09:19:29.698Z,13.07
2017-11-12T09:21:57.157Z,8.83
2017-11-12T09:24:24.585Z,11.73
2017-11-12T09:26:53.003Z,10.27
2017-11-12T09:29:20.427Z,9.83
2017-11-12T09:31:47.901Z,13.63
2017-11-12T09:34:15.329Z,11.17
2017-11-12T09:36:42.807Z,14.00
2017-11-12T09:39:10.553Z,10.33
2017-11-12T09:41:37.980Z,8.27
2017-11-12T09:44:05.426Z,11.70
2017-11-12T09:46:33.831Z,10.13
2017-11-12T09:49:01.270Z,11.00
2017-11-12T09:51:28.721Z,13.13
2017-11-12T09:53:56.169Z,12.30
2017-11-12T09:56:23.602Z,11.77
2017-11-12T09:58:51.442Z,10.17
2017-11-12T10:01:19.178Z,10.47
2017-11-12T10:03:46.611Z,16.50
2017-11-12T10:06:14.037Z,16.60
2017-11-12T10:08:42.266Z,8.40
2017-11-12T10:11:09.708Z,17.10
2017-11-12T10:13:37.121Z,8.73
2017-11-12T10:16:04.949Z,11.40
2017-11-12T10:18:32.442Z,7.20
2017-11-12T10:21:00.301Z,14.17
2017-11-12T10:23:28.126Z,9.43
2017-11-12T10:25:58.553Z,10.50
2017-11-12T10:28:26.298Z,7.13
2017-11-12T10:30:53.750Z,8.90
2017-11-12T10:33:21.175Z,9.57
2017-11-12T10:35:48.613Z,11.80
2017-11-12T10:38:16.422Z,8.57
2017-11-12T10:40:43.882Z,8.57
2017-11-12T10:43:11.319Z,10.40
2017-11-12T10:45:38.792Z,13.20
2017-11-12T10:48:06.446Z,7.43
2017-11-12T10:50:33.891Z,14.20
2017-11-12T10:53:01.300Z,10.13
2017-11-12T10:55:29.021Z,8.33
2017-11-12T10:57:56.436Z,9.93
2017-11-12T11:00:24.254Z,10.87
2017-11-12T11:02:51.970Z,8.47
2017-11-12T11:05:19.395Z,10.67
2017-11-12T11:07:46.834Z,8.10
2017-11-12T11:10:14.306Z,10.60
2017-11-12T11:12:42.134Z,9.30
2017-11-12T11:15:09.554Z,5.90
2017-11-12T11:17:37.029Z,10.30
2017-11-12T11:20:05.294Z,7.03
2017-11-12T11:22:32.739Z,7.17
2017-11-12T11:25:00.418Z,11.93
2017-11-12T11:27:27.865Z,8.27
2017-11-12T11:29:55.269Z,8.23
2017-11-12T11:32:22.693Z,7.60
2017-11-12T11:34:50.105Z,6.90
2017-11-12T11:37:17.547Z,10.23
2017-11-12T11:39:45.617Z,9.97
2017-11-12T11:42:13.429Z,9.30
2017-11-12T11:44:41.160Z,9.33
2017-11-12T11:47:09.041Z,12.30
2017-11-12T11:49:36.465Z,8.83
2017-11-12T11:52:04.280Z,13.37
2017-11-12T11:54:31.729Z,9.70
2017-11-12T11:56:59.153Z,7.60
2017-11-12T11:59:26.564Z,10.47
2017-11-12T12:01:54.293Z,15.87
2017-11-12T12:04:21.746Z,8.07
2017-11-12T12:06:49.171Z,8.47
2017-11-12T12:09:17.293Z,7.70
2017-11-12T12:11:44.729Z,10.50
2017-11-12T12:14:12.149Z,7.17
2017-11-12T12:16:40.870Z,11.10
2017-11-12T12:19:08.290Z,8.83
2017-11-12T12:21:35.717Z,9.43
2017-11-12T12:24:03.178Z,7.57
2017-11-12T12:26:30.604Z,12.37
2017-11-12T12:28:58.030Z,7.83
2017-11-12T12:31:25.470Z,10.50
2017-11-12T12:33:52.893Z,11.33
2017-11-12T12:36:20.750Z,9.93
2017-11-12T12:38:48.207Z,7.60
2017-11-12T12:41:15.629Z,11.30
2017-11-12T12:43:43.059Z,12.37
2017-11-12T12:46:10.705Z,10.97
2017-11-12T12:48:38.125Z,14.30
2017-11-12T12:51:05.561Z,10.97
2017-11-12T12:53:33.305Z,11.50
2017-11-12T12:56:00.894Z,11.13
2017-11-12T12:58:28.323Z,6.23
2017-11-12T13:00:55.778Z,12.43
2017-11-12T13:03:23.205Z,14.70
2017-11-12T13:05:50.630Z,11.20
2017-11-12T13:08:18.478Z,12.70
2017-11-12T13:10:45.917Z,9.33
2017-11-12T13:13:13.351Z,10.10
2017-11-12T13:15:40.796Z,10.30
2017-11-12T13:18:08.225Z,11.67
2017-11-12T13:20:36.047Z,9.57
2017-11-12T13:23:03.521Z,8.73
2017-11-12T13:25:31.023Z,9.40
2017-11-12T13:27:58.842Z,9.70
2017-11-12T13:30:26.298Z,11.17
2017-11-12T13:32:53.723Z,13.93
2017-11-12T13:35:21.144Z,11.63
2017-11-12T13:37:48.594Z,8.20
2017-11-12T13:40:16.030Z,9.80
2017-11-12T13:42:43.494Z,8.27
2017-11-12T13:45:11.322Z,11.47
2017-11-12T13:47:38.785Z,10.63
2017-11-12T13:50:06.543Z,13.57
2017-11-12T13:52:33.987Z,25.57
2017-11-12T13:55:01.611Z,14.27
2017-11-12T13:57:29.056Z,11.50
2017-11-12T13:59:56.499Z,12.73
2017-11-12T14:02:24.366Z,11.13
2017-11-12T14:04:52.197Z,10.83
2017-11-12T14:07:19.642Z,9.73
2017-11-12T14:09:47.102Z,9.70
2017-11-12T14:12:14.539Z,14.30
2017-11-12T14:14:42.002Z,17.20
2017-11-12T14:17:09.443Z,7.93
2017-11-12T14:19:37.057Z,9.63
2017-11-12T14:22:04.890Z,9.13
2017-11-12T14:24:32.322Z,9.73
2017-11-12T14:26:59.785Z,13.43
2017-11-12T14:29:27.247Z,11.83
2017-11-12T14:31:54.694Z,11.57
2017-11-12T14:34:22.170Z,10.43
2017-11-12T14:36:49.633Z,11.90
2017-11-12T14:39:17.057Z,11.70
2017-11-12T14:41:44.517Z,8.83
2017-11-12T14:44:11.946Z,9.73
2017-11-12T14:46:39.385Z,11.43
2017-11-12T14:49:06.837Z,10.20
2017-11-12T14:51:34.279Z,12.87
2017-11-12T14:54:02.097Z,14.67
2017-11-12T14:56:29.569Z,10.13
2017-11-12T14:58:57.005Z,11.37
2017-11-12T15:01:24.449Z,15.77
2017-11-12T15:03:52.724Z,12.50
2017-11-12T15:06:20.162Z,15.30
2017-11-12T15:08:47.595Z,14.60
2017-11-12T15:11:15.475Z,11.07
2017-11-12T15:13:43.305Z,13.70
2017-11-12T15:16:10.751Z,15.57
2017-11-12T15:18:38.387Z,19.13
2017-11-12T15:21:05.807Z,13.20
2017-11-12T15:23:33.230Z,10.73
2017-11-12T15:26:00.679Z,14.47
2017-11-12T15:28:28.113Z,28.10
2017-11-12T15:30:55.697Z,34.60
2017-11-12T15:33:24.041Z,38.83
2017-11-12T15:35:51.494Z,22.90
2017-11-12T15:38:19.910Z,16.40
2017-11-12T15:40:47.345Z,14.40
2017-11-12T15:43:14.791Z,13.70
2017-11-12T15:45:42.253Z,12.07
2017-11-12T15:48:10.018Z,15.97
2017-11-12T15:50:37.469Z,14.40
2017-11-12T15:53:04.936Z,14.63
2017-11-12T15:55:32.361Z,14.20
2017-11-12T15:57:59.807Z,13.37
2017-11-12T16:00:27.469Z,175.47
2017-11-12T16:02:54.915Z,16.37
2017-11-12T16:05:22.375Z,14.67
2017-11-12T16:07:49.821Z,15.80
2017-11-12T16:10:17.266Z,13.03
2017-11-12T16:12:45.001Z,16.30
2017-11-12T16:15:12.845Z,16.40
2017-11-12T16:17:40.291Z,45.23
2017-11-12T16:20:07.757Z,23.67
2017-11-12T16:22:35.185Z,17.53
2017-11-12T16:25:02.628Z,15.03
2017-11-12T16:27:30.080Z,17.93
2017-11-12T16:29:57.497Z,40.83
2017-11-12T16:32:25.329Z,128.40
2017-11-12T16:34:53.697Z,34.23
2017-11-12T16:37:21.142Z,25.93
2017-11-12T16:39:48.589Z,40.07
2017-11-12T16:42:16.052Z,28.60
2017-11-12T16:44:43.485Z,21.50
2017-11-12T16:47:10.962Z,28.77
2017-11-12T16:49:38.417Z,96.67
2017-11-12T16:52:05.846Z,50.47
2017-11-12T16:54:33.293Z,52.73
2017-11-12T16:57:01.195Z,23.70
2017-11-12T16:59:28.773Z,23.33
2017-11-12T17:01:56.209Z,18.17
2017-11-12T17:04:24.465Z,19.70
2017-11-12T17:06:51.897Z,23.47
2017-11-12T17:09:19.730Z,29.37
2017-11-12T17:11:47.462Z,21.57
2017-11-12T17:14:14.914Z,37.63
2017-11-12T17:16:42.359Z,38.53
2017-11-12T17:19:10.147Z,26.07
2017-11-12T17:21:37.589Z,24.13
2017-11-12T17:24:05.037Z,19.17
2017-11-12T17:26:32.481Z,20.83
2017-11-12T17:28:59.917Z,19.70
2017-11-12T17:31:27.357Z,19.33
2017-11-12T17:33:55.486Z,19.47
2017-11-12T17:36:22.930Z,22.23
2017-11-12T17:38:50.355Z,19.73
2017-11-12T17:41:18.718Z,18.57
2017-11-12T17:43:46.153Z,16.30
2017-11-12T17:46:13.598Z,18.13
2017-11-12T17:48:41.437Z,16.10
2017-11-12T17:51:09.801Z,20.57
2017-11-12T17:53:37.230Z,19.17
2017-11-12T17:56:05.074Z,18.63
2017-11-12T17:58:32.512Z,21.50
2017-11-12T18:00:59.962Z,60.83
2017-11-12T18:03:27.401Z,35.13
2017-11-12T18:05:54.866Z,25.80
2017-11-12T18:08:22.336Z,23.70
2017-11-12T18:10:49.768Z,20.20
2017-11-12T18:13:17.230Z,26.07
2017-11-12T18:15:44.665Z,23.90
2017-11-12T18:18:12.121Z,36.63
2017-11-12T18:20:39.585Z,52.60
2017-11-12T18:23:07.013Z,24.30
2017-11-12T18:25:34.457Z,23.80
2017-11-12T18:28:02.685Z,21.93
2017-11-12T18:30:30.125Z,21.00
2017-11-12T18:32:57.560Z,38.43
2017-11-12T18:35:25.206Z,20.60
2017-11-12T18:37:53.014Z,32.27
2017-11-12T18:40:20.453Z,28.10
2017-11-12T18:42:48.002Z,94.50
2017-11-12T18:45:15.453Z,31.90
2017-11-12T18:47:42.902Z,25.30
2017-11-12T18:50:10.682Z,32.70
2017-11-12T18:52:38.118Z,26.87
2017-11-12T18:55:07.362Z,24.43
2017-11-12T18:57:38.261Z,23.23
2017-11-12T19:00:06.114Z,17.90
2017-11-12T19:02:39.696Z,23.70
2017-11-12T20:12:35.004Z,29.90
2017-11-12T20:15:03.618Z,33.47
2017-11-12T20:17:31.062Z,31.97
2017-11-12T20:19:58.638Z,30.63
2017-11-12T20:22:26.059Z,35.17
2017-11-12T20:24:53.502Z,32.50
2017-11-12T20:27:21.354Z,34.33
2017-11-12T20:29:48.794Z,29.77
2017-11-12T20:32:16.453Z,28.97
2017-11-12T20:34:43.902Z,34.33
2017-11-12T20:37:11.333Z,31.27
2017-11-12T20:39:38.790Z,36.47
2017-11-12T20:42:06.358Z,30.60
2017-11-12T20:44:33.807Z,31.70
2017-11-12T20:47:01.249Z,35.60
2017-11-12T20:49:28.706Z,28.73
2017-11-12T20:51:56.150Z,33.10
2017-11-12T20:54:23.885Z,38.47
2017-11-12T20:56:52.380Z,36.43
2017-11-12T20:59:19.842Z,71.13
2017-11-12T21:01:47.278Z,45.10
2017-11-12T21:04:15.179Z,39.97
2017-11-12T21:06:42.656Z,39.23
2017-11-12T21:09:10.093Z,40.07
2017-11-12T21:11:37.528Z,56.27
2017-11-12T21:14:04.982Z,37.67
2017-11-12T21:16:32.418Z,73.87
2017-11-12T21:18:59.863Z,50.43
2017-11-12T21:21:27.715Z,64.70
2017-11-12T21:24:11.039Z,56.37
2017-11-12T21:26:50.533Z,72.47
2017-11-12T21:29:29.252Z,78.17
2017-11-12T21:31:59.496Z,88.20
2017-11-12T21:58:52.967Z,33.37
2017-11-12T22:01:20.439Z,36.07
2017-11-12T22:03:47.896Z,45.10
2017-11-12T22:06:15.331Z,53.90
2017-11-12T22:08:42.871Z,68.93
2017-11-12T22:11:10.355Z,74.13
2017-11-12T22:13:37.797Z,44.30
2017-11-12T22:16:05.230Z,42.10
2017-11-12T22:18:33.553Z,42.07
2017-11-12T22:21:00.987Z,43.23
2017-11-12T22:23:28.426Z,56.40
2017-11-12T22:25:55.887Z,52.50
2017-11-12T22:28:23.330Z,46.10
2017-11-12T22:30:51.153Z,66.57
2017-11-12T22:33:18.898Z,42.93
2017-11-12T22:35:46.538Z,56.87
2017-11-12T22:38:13.953Z,77.07
2017-11-12T22:40:41.776Z,84.33
2017-11-12T22:43:09.379Z,66.43
2017-11-12T22:45:39.510Z,65.67
2017-11-12T22:48:06.929Z,63.97
2017-11-12T22:50:35.471Z,67.10
2017-11-12T22:53:02.932Z,86.23
2017-11-12T22:55:30.375Z,53.13
2017-11-12T22:57:58.357Z,40.10
2017-11-12T23:00:25.818Z,49.80
2017-11-12T23:02:53.266Z,52.20
2017-11-12T23:05:20.717Z,46.07
2017-11-12T23:07:48.177Z,50.70
2017-11-12T23:10:15.627Z,113.97
2017-11-12T23:12:43.070Z,55.30
2017-11-12T23:15:10.501Z,51.23
2017-11-12T23:17:37.932Z,52.23
2017-11-12T23:20:05.790Z,39.13
2017-11-12T23:22:33.213Z,51.53
2017-11-12T23:25:00.636Z,54.20
2017-11-12T23:27:28.076Z,44.07
2017-11-12T23:29:55.897Z,49.37
2017-11-12T23:32:23.335Z,105.70
2017-11-12T23:34:50.999Z,65.73
2017-11-12T23:37:18.425Z,116.50
2017-11-12T23:39:45.854Z,48.60
2017-11-12T23:42:13.706Z,34.80
2017-11-12T23:44:41.538Z,38.63
2017-11-12T23:47:08.969Z,44.20
2017-11-12T23:49:36.418Z,61.93
2017-11-12T23:52:03.845Z,108.50
2017-11-12T23:54:31.669Z,65.47
2017-11-12T23:56:59.115Z,63.67
2017-11-12T23:59:26.541Z,33.53
